createdAt,value
2022-10-31T00:02:40.964Z,25.50
2022-10-31T00:07:43.417Z,25.53
2022-10-31T00:12:45.916Z,25.73
2022-10-31T00:17:48.433Z,26.27
2022-10-31T00:22:51.022Z,26.67
2022-10-31T00:27:53.962Z,25.47
2022-10-31T00:32:56.837Z,26.40
2022-10-31T00:37:59.659Z,26.67
2022-10-31T00:43:02.768Z,26.00
2022-10-31T00:48:06.174Z,27.93
2022-10-31T00:53:08.868Z,23.40
2022-10-31T00:58:11.426Z,23.10
2022-10-31T01:03:15.247Z,23.07
2022-10-31T01:08:17.780Z,23.10
2022-10-31T01:13:23.328Z,24.87
2022-10-31T01:18:26.310Z,23.83
2022-10-31T01:23:29.332Z,23.47
2022-10-31T01:28:31.849Z,25.17
2022-10-31T01:33:35.435Z,27.57
2022-10-31T01:38:38.081Z,30.53
2022-10-31T01:43:50.645Z,29.70
2022-10-31T01:48:55.019Z,27.97
2022-10-31T01:54:01.577Z,28.77
2022-10-31T01:59:08.972Z,27.80
2022-10-31T02:04:11.769Z,25.43
2022-10-31T02:09:16.036Z,25.73
2022-10-31T02:14:18.962Z,25.23
2022-10-31T02:19:47.065Z,24.70
2022-10-31T02:25:04.450Z,24.67
2022-10-31T02:30:27.701Z,25.30
2022-10-31T02:35:49.059Z,23.43
2022-10-31T02:41:13.346Z,23.03
2022-10-31T02:46:33.640Z,24.63
2022-10-31T02:51:37.341Z,24.20
2022-10-31T02:56:40.207Z,24.47
2022-10-31T03:02:21.249Z,25.37
2022-10-31T03:07:32.238Z,22.50
2022-10-31T03:12:47.694Z,24.17
2022-10-31T03:18:05.463Z,23.50
2022-10-31T03:23:12.981Z,24.10
2022-10-31T03:33:31.404Z,23.73
2022-10-31T03:38:36.522Z,22.20
2022-10-31T03:43:45.777Z,23.83
2022-10-31T03:48:48.828Z,20.77
2022-10-31T03:53:51.381Z,21.47
2022-10-31T03:59:02.086Z,23.57
2022-10-31T04:04:06.561Z,24.03
2022-10-31T04:09:10.999Z,23.37
2022-10-31T04:14:13.739Z,22.57
2022-10-31T04:19:16.459Z,21.03
2022-10-31T04:24:19.101Z,20.77
2022-10-31T04:29:21.599Z,20.00
2022-10-31T04:34:24.128Z,20.63
2022-10-31T04:39:26.946Z,20.37
2022-10-31T04:44:55.538Z,20.57
2022-10-31T04:49:58.916Z,20.43
2022-10-31T04:55:01.373Z,20.43
2022-10-31T05:00:23.392Z,21.83
2022-10-31T05:05:29.767Z,25.67
2022-10-31T05:10:32.907Z,21.73
2022-10-31T05:15:36.898Z,23.53
2022-10-31T05:21:02.426Z,23.33
2022-10-31T05:26:11.104Z,21.67
2022-10-31T05:31:13.595Z,21.07
2022-10-31T05:36:18.007Z,19.97
2022-10-31T05:41:39.176Z,19.40
2022-10-31T05:46:48.347Z,22.27
2022-10-31T05:52:24.310Z,19.77
2022-10-31T05:57:35.062Z,20.70
2022-10-31T06:02:39.038Z,20.80
2022-10-31T06:07:57.386Z,20.23
2022-10-31T06:13:00.221Z,20.77
2022-10-31T06:18:11.701Z,20.30
2022-10-31T06:23:23.360Z,19.07
2022-10-31T06:28:31.482Z,18.33
2022-10-31T06:33:46.980Z,18.27
2022-10-31T06:38:49.402Z,18.83
2022-10-31T06:43:55.370Z,18.97
2022-10-31T06:49:16.467Z,19.03
2022-10-31T06:54:26.356Z,21.23
2022-10-31T06:59:30.433Z,22.60
2022-10-31T07:04:51.945Z,19.87
2022-10-31T07:09:54.386Z,24.07
2022-10-31T07:15:11.961Z,21.60
2022-10-31T07:20:14.626Z,29.53
2022-10-31T07:25:17.940Z,22.87
2022-10-31T07:30:39.435Z,32.80
2022-10-31T07:35:42.137Z,22.77
2022-10-31T07:40:52.919Z,24.50
2022-10-31T07:45:55.784Z,29.00
2022-10-31T07:51:16.816Z,27.17
2022-10-31T07:56:50.354Z,33.10
2022-10-31T08:01:52.896Z,53.13
2022-10-31T08:07:21.083Z,43.23
2022-10-31T08:12:31.048Z,43.93
2022-10-31T08:17:37.100Z,29.30
2022-10-31T08:22:43.756Z,32.37
2022-10-31T08:27:52.222Z,39.77
2022-10-31T08:33:01.565Z,34.30
2022-10-31T08:38:22.722Z,35.33
2022-10-31T08:43:26.194Z,35.27
2022-10-31T08:48:30.444Z,39.70
2022-10-31T08:53:33.244Z,26.57
2022-10-31T08:58:59.004Z,28.93
2022-10-31T09:04:13.860Z,22.00
2022-10-31T09:09:16.720Z,18.50
2022-10-31T09:14:19.151Z,17.37
2022-10-31T09:19:50.505Z,18.37
2022-10-31T09:24:53.032Z,21.03
2022-10-31T09:29:55.998Z,21.40
2022-10-31T09:34:58.671Z,19.10
2022-10-31T09:40:01.167Z,20.23
2022-10-31T09:45:23.040Z,19.83
2022-10-31T09:50:51.239Z,18.40
2022-10-31T09:56:20.169Z,22.37
2022-10-31T10:01:50.728Z,25.13
2022-10-31T10:06:53.550Z,25.47
2022-10-31T10:12:54.547Z,21.87
2022-10-31T10:18:20.653Z,24.40
2022-10-31T10:23:30.903Z,30.00
2022-10-31T10:28:39.704Z,24.97
2022-10-31T10:34:04.560Z,22.43
2022-10-31T10:39:24.475Z,24.77
2022-10-31T10:44:45.523Z,24.77
2022-10-31T10:49:54.829Z,22.77
2022-10-31T10:55:22.222Z,25.80
2022-10-31T11:00:30.588Z,23.03
2022-10-31T11:05:46.688Z,28.23
2022-10-31T11:11:04.902Z,24.60
2022-10-31T11:16:15.757Z,20.07
2022-10-31T11:21:36.585Z,30.17
2022-10-31T11:26:40.516Z,34.63
2022-10-31T11:31:44.176Z,27.90
2022-10-31T11:36:47.150Z,33.13
2022-10-31T11:41:51.389Z,30.20
2022-10-31T11:46:56.961Z,30.30
2022-10-31T11:52:09.170Z,22.27
2022-10-31T11:57:43.923Z,28.80
2022-10-31T12:02:46.525Z,24.63
2022-10-31T12:07:50.257Z,26.50
2022-10-31T12:13:33.471Z,23.40
2022-10-31T12:18:45.077Z,25.23
2022-10-31T12:24:07.332Z,23.43
2022-10-31T12:29:31.546Z,19.87
2022-10-31T12:34:52.598Z,21.30
2022-10-31T12:40:07.714Z,19.53
2022-10-31T12:45:19.941Z,18.87
2022-10-31T12:50:40.933Z,17.33
2022-10-31T12:55:46.266Z,20.43
2022-10-31T13:01:09.657Z,20.13
2022-10-31T13:06:19.725Z,20.20
2022-10-31T13:11:34.352Z,20.33
2022-10-31T13:16:42.512Z,21.40
2022-10-31T13:22:03.985Z,19.57
2022-10-31T13:27:19.303Z,17.30
2022-10-31T13:32:22.148Z,18.13
2022-10-31T13:37:53.659Z,16.67
2022-10-31T13:43:14.552Z,23.20
2022-10-31T13:48:17.121Z,18.43
2022-10-31T13:53:19.636Z,23.73
2022-10-31T13:58:28.651Z,22.13
2022-10-31T14:03:57.754Z,20.13
2022-10-31T14:08:56.682Z,22.63
2022-10-31T14:14:01.618Z,21.53
2022-10-31T14:19:08.570Z,15.00
2022-10-31T14:24:26.409Z,18.73
2022-10-31T14:29:34.693Z,22.63
2022-10-31T14:34:42.201Z,22.90
2022-10-31T14:40:06.398Z,20.33
2022-10-31T14:45:30.595Z,20.93
2022-10-31T14:50:49.212Z,22.60
2022-10-31T14:55:54.537Z,26.03
2022-10-31T15:00:58.669Z,23.20
2022-10-31T15:06:06.563Z,24.73
2022-10-31T15:11:15.430Z,24.43
2022-10-31T15:21:48.410Z,26.85
2022-10-31T15:26:53.541Z,25.48
2022-10-31T15:31:58.106Z,27.70
2022-10-31T15:37:00.613Z,27.33
2022-10-31T15:42:03.459Z,27.02
2022-10-31T15:47:18.883Z,25.15
2022-10-31T15:52:34.075Z,22.90
2022-10-31T15:57:43.189Z,24.73
2022-10-31T16:02:45.816Z,24.90
2022-10-31T16:07:52.863Z,24.27
2022-10-31T16:12:55.441Z,23.02
2022-10-31T16:18:01.412Z,21.20
2022-10-31T16:23:04.344Z,22.80
2022-10-31T16:28:27.120Z,21.50
2022-10-31T16:33:38.618Z,22.40
2022-10-31T16:38:41.789Z,20.98
2022-10-31T16:43:46.647Z,22.77
2022-10-31T16:48:53.499Z,23.75
2022-10-31T16:53:55.914Z,22.77
2022-10-31T16:59:03.153Z,21.98
2022-10-31T17:04:05.573Z,23.23
2022-10-31T17:09:08.106Z,22.65
2022-10-31T17:14:11.207Z,26.30
2022-10-31T17:19:14.354Z,25.80
2022-10-31T17:24:16.781Z,20.42
2022-10-31T17:29:19.256Z,22.73
2022-10-31T17:34:21.847Z,23.08
2022-10-31T17:39:24.287Z,22.58
2022-10-31T17:44:26.851Z,23.48
2022-10-31T17:49:29.415Z,22.27
2022-10-31T17:54:31.874Z,26.70
2022-10-31T17:59:34.410Z,22.20
2022-10-31T18:04:37.549Z,21.83
2022-10-31T18:09:39.902Z,22.23
2022-10-31T18:14:48.115Z,20.50
2022-10-31T18:19:50.934Z,29.03
2022-10-31T18:24:53.878Z,19.17
2022-10-31T18:29:57.892Z,24.87
2022-10-31T18:35:00.322Z,17.02
2022-10-31T18:40:03.718Z,18.60
2022-10-31T18:45:12.084Z,17.20
2022-10-31T18:50:29.255Z,17.83
2022-10-31T18:55:31.609Z,17.53
2022-10-31T19:00:34.031Z,18.27
2022-10-31T19:05:36.487Z,19.38
2022-10-31T19:10:40.139Z,16.80
2022-10-31T19:15:42.835Z,16.88
2022-10-31T19:20:45.221Z,17.73
2022-10-31T19:25:47.713Z,17.77
2022-10-31T19:30:54.654Z,16.95
2022-10-31T19:36:01.165Z,19.38
2022-10-31T19:41:10.471Z,18.17
2022-10-31T19:46:22.003Z,17.70
2022-10-31T19:51:30.443Z,18.00
2022-10-31T19:56:32.833Z,19.63
2022-10-31T20:01:35.481Z,17.63
2022-10-31T20:06:40.764Z,18.13
2022-10-31T20:11:45.882Z,19.77
2022-10-31T20:16:48.306Z,16.85
2022-10-31T20:21:50.771Z,18.63
2022-10-31T20:26:53.194Z,18.40
2022-10-31T20:31:57.167Z,19.58
2022-10-31T20:36:59.623Z,17.90
2022-10-31T20:42:02.482Z,24.33
2022-10-31T20:47:06.702Z,28.30
2022-10-31T20:52:09.246Z,28.27
2022-10-31T20:57:11.600Z,31.83
2022-10-31T21:02:14.189Z,32.27
2022-10-31T21:07:17.002Z,30.93
2022-10-31T21:12:19.482Z,30.53
2022-10-31T21:17:22.057Z,33.20
2022-10-31T21:22:24.447Z,17.47
2022-10-31T21:27:27.110Z,17.90
2022-10-31T21:32:29.658Z,22.33
2022-10-31T21:37:32.137Z,19.10
2022-10-31T21:42:34.603Z,16.60
2022-10-31T21:47:36.995Z,17.87
2022-10-31T21:52:39.442Z,17.83
2022-10-31T21:57:42.038Z,13.87
2022-10-31T22:02:44.429Z,16.20
2022-10-31T22:07:46.816Z,16.03
2022-10-31T22:12:49.372Z,14.37
2022-10-31T22:17:51.853Z,17.43
2022-10-31T22:22:54.280Z,19.63
2022-10-31T22:27:56.779Z,19.03
2022-10-31T22:32:59.508Z,17.00
2022-10-31T22:38:02.171Z,19.73
2022-10-31T22:43:04.871Z,16.17
2022-10-31T22:48:07.425Z,20.87
2022-10-31T22:53:11.673Z,18.17
2022-10-31T22:58:14.210Z,14.20
2022-10-31T23:03:19.127Z,19.48
2022-10-31T23:08:21.508Z,18.30
2022-10-31T23:13:42.981Z,16.97
2022-10-31T23:18:50.108Z,17.10
2022-10-31T23:23:52.957Z,13.23
2022-10-31T23:28:55.472Z,13.93
2022-10-31T23:33:57.832Z,14.07
2022-10-31T23:39:00.222Z,15.13
2022-10-31T23:44:02.913Z,23.87
2022-10-31T23:49:05.356Z,15.83
2022-10-31T23:54:08.341Z,17.57
2022-10-31T23:59:11.148Z,15.37
